Index of /wp-hr-content/uploads/2024/01/

NameLast ModifiedSize
UpParent Directory
FileACCOUNTING-TECHNICIAN-I-DOA-DOA81-24.pdf2024-01-26 03:31 258k
FileADMINISTRATION-ASSISTANT-DEPARTMENT-OF-AGRICULTURE-DOA82-24.pdf2024-01-26 03:31 258k
FileANIMAL-CONTROL-OFFICER-I-OPEN-DOA66-24.pdf2024-01-12 07:55 188k
FileBUDGET-AND-MANAGEMENT-ANALYST-IV-BBMR-DOA83-24.pdf2024-01-26 03:31 230k
FileBUSINESS-TAX-SERVICE-SPECIALIST-OPEN-DOA54-24.pdf2024-01-12 07:55 265k
FileCARPENTER-II-OPEN-DOA74-24.pdf2024-01-12 07:55 256k
FileCHIEF-CHILDREN-SERVICES-ADMINISTRATOR-OPEN-DOA70-24.pdf2024-01-12 07:55 259k
FileCLERK-TYPIST-III-OPEN-DOA57-24.pdf2024-01-12 07:55 178k
FileCOMMODITY-INSPECTOR-II-DEPT-DOA68-24.pdf2024-01-12 07:55 179k
FileCOMMUNITY-HEALTH-CENTER-CHIEF-EXECUTIVE-OFFICER-OPEN-DOA78-24.pdf2024-01-26 03:31 271k
FileCRIMINALIST-I-OPEN-DOA84-24.pdf2024-01-26 03:31 254k
FileDOA-Circular-2024-015-Revised-WPPE-Form.pdf2024-01-23 03:03 556k
FileDRIVERS-LICENSE-EXAMINER-I-OPEN-DOA85-24.pdf2024-01-26 03:31 263k
FileENVIRONMENTAL-PUBLIC-HEALTH-OFFICER-SUPERVISOR-OPEN-DOA59-24..pdf2024-01-12 07:56 308k
FileEQUIPMENT-OPERATOR-II-DPW-DOA77-24.pdf2024-01-26 03:31 182k
FileFORESTER-I-OPEN-DOA75-24.pdf2024-01-12 07:56 216k
FileFORESTRY-AIDE-I-OPEN-DOA60-24.pdf2024-01-12 07:56 178k
FileHUMAN-SERVICES-PROGRAM-ADMINISTRATOR-OPEN-DOA58-24.pdf2024-01-12 07:56 187k
FileLIBRARY-TECHNICIAN-I-CLTA-OPEN-DOA56-24.pdf2024-01-12 07:55 259k
FileMANAGEMENT-ANALYST-I-S.F.-OPEN-DOA62-24.pdf2024-01-12 07:55 186k
FileNew-Employee-Processing-Forms-2024.pdf2024-01-03 23:36 2441k
FilePA-ACTION-DATE-11-26-2023-THRU-01-25-2024.pdf2024-01-26 03:11 9430k
FilePERSONNEL-SPECIALIST-I-OPEN-DOA63-24.pdf2024-01-12 07:55 269k
FilePERSONNEL-SPECIALIST-IV-OPEN-DOA64-24.pdf2024-01-12 07:55 210k
FilePLANNER-II-OPEN-DOA72-24.pdf2024-01-12 07:55 269k
FilePLANNER-III-OPEN-DOA67-24.pdf2024-01-12 07:55 189k
FilePLANNER-IV-OPEN-DOA73-24.pdf2024-01-12 07:55 267k
FilePROCUREMENT-COUNSEL-GSA-OPEN-DOA65-24.pdf2024-01-12 07:55 189k
FilePROGRAM-COORDINATOR-III-BUREAU-OF-WOMENS-AFFAIRS-DOA88-24.pdf2024-01-26 03:31 283k
FilePROGRAM-COORDINATOR-IV-DEPT-DOA53-24.pdf2024-01-12 07:55 269k
FilePROPERTY-CONTROL-OFFICER-OPEN-DOA71-24.pdf2024-01-12 07:55 273k
FilePROPERTY-SITE-MANAGER-DOA-OPEN-DOA76-24.pdf2024-01-12 07:55 269k
FilePUBLIC-INFORMATION-OFFICER-OPEN-DOA80-24.pdf2024-01-26 03:31 259k
FileSCHOOL-BUS-DRIVER-LEADER-DPW-DOA79-24.pdf2024-01-26 03:31 182k
FileSTATISTICIAN-I-OPEN-DOA86-24.pdf2024-01-26 03:31 257k
FileSTATISTICIAN-II-GPD-DOA87-24.pdf2024-01-26 03:31 265k
FileTRANSPORTATION-MAINTENANCE-SUPERINTENDENT-OPEN-DOA55-24.pdf2024-01-12 07:55 189k
Proudly Served by LiteSpeed Web Server at hr.doa.guam.gov Port 443